Time;durP1;ratioP1;P1;durP2;ratioP2;P2;SDS_P1;SDS_P2;PMS_P1;PMS_P2;Temp;Humidity;BMP_temperature;BMP_pressure;BME280_temperature;BME280_humidity;BME280_pressure;Samples;Min_cycle;Max_cycle;Signal;HPM_P1;HPM_P2
2022/09/13 00:00:56;;;;;;;2.35;1.73;;;16.70;99.90;;;15.98;85.93;96940.72;5053382;28;20983;-75
2022/09/13 00:03:23;;;;;;;3.22;1.83;;;16.70;99.90;;;16.00;85.25;96945.78;5052759;28;20424;-75
2022/09/13 00:05:49;;;;;;;2.67;1.88;;;16.80;99.90;;;15.98;86.08;96958.63;5053009;28;20408;-76
2022/09/13 00:08:16;;;;;;;3.80;1.53;;;16.80;99.90;;;15.94;84.74;96961.06;5053218;28;20409;-75
2022/09/13 00:10:44;;;;;;;2.83;1.70;;;16.70;99.90;;;15.91;83.52;96959.00;5053039;28;20476;-75
2022/09/13 00:13:12;;;;;;;1.83;1.55;;;16.70;99.90;;;15.90;85.47;96961.97;5051544;28;20398;-76
2022/09/13 00:15:43;;;;;;;2.78;1.60;;;16.70;99.90;;;15.85;86.92;96947.66;5052862;28;20416;-74
2022/09/13 00:18:08;;;;;;;5.68;1.70;;;16.60;99.90;;;15.88;87.10;96940.91;5052978;28;20519;-75
2022/09/13 00:20:36;;;;;;;2.05;1.58;;;16.70;99.90;;;15.86;86.64;96941.19;5053025;28;20441;-75
2022/09/13 00:23:02;;;;;;;3.38;1.70;;;16.60;99.90;;;15.87;86.91;96942.00;5052477;28;20405;-76
2022/09/13 00:25:28;;;;;;;3.25;1.65;;;16.70;99.90;;;15.86;87.13;96935.84;5052798;28;20480;-75
2022/09/13 00:27:54;;;;;;;2.38;1.70;;;16.60;99.90;;;15.83;87.67;96925.78;5052892;28;20512;-76
2022/09/13 00:30:20;;;;;;;4.03;1.80;;;16.60;99.90;;;15.86;88.82;96927.84;5052833;28;20438;-75
2022/09/13 00:32:46;;;;;;;2.53;1.80;;;16.60;99.90;;;15.83;88.52;96931.13;5052153;28;20909;-75
2022/09/13 00:35:12;;;;;;;2.10;1.60;;;16.60;99.90;;;15.83;88.98;96930.34;5052634;28;20412;-75
2022/09/13 00:37:39;;;;;;;1.98;1.65;;;16.60;99.90;;;15.83;89.30;96933.00;5051086;28;20463;-75
2022/09/13 00:40:07;;;;;;;3.10;1.58;;;16.60;99.90;;;15.82;88.97;96934.88;5052341;28;20436;-75
2022/09/13 00:42:33;;;;;;;4.57;1.70;;;16.60;99.90;;;15.82;87.53;96934.09;5052383;28;20405;-75
2022/09/13 00:45:02;;;;;;;3.20;1.52;;;16.60;99.90;;;15.81;88.20;96935.97;5052026;28;20404;-76
2022/09/13 00:47:37;;;;;;;2.35;1.70;;;16.60;99.90;;;15.81;85.93;96937.84;5052404;28;20997;-75
2022/09/13 00:50:10;;;;;;;2.25;1.75;;;16.60;99.90;;;15.82;87.61;96939.41;5052371;28;20409;-75
2022/09/13 00:52:41;;;;;;;2.67;1.80;;;16.60;99.90;;;15.84;85.15;96934.59;5051987;28;20409;-75
2022/09/13 00:55:15;;;;;;;2.88;1.55;;;16.60;99.90;;;15.82;83.91;96934.88;5052081;28;20489;-75
2022/09/13 00:57:43;;;;;;;3.13;1.77;;;16.60;99.90;;;15.90;84.14;96928.06;5052127;28;20421;-76
2022/09/13 01:00:12;;;;;;;6.45;2.20;;;16.60;99.90;;;15.90;81.96;96922.72;5052243;28;20401;-76
2022/09/13 01:02:43;;;;;;;3.00;1.63;;;16.60;99.90;;;15.90;82.51;96916.59;5051882;28;20406;-75
2022/09/13 01:05:10;;;;;;;3.85;1.70;;;16.60;99.90;;;16.00;80.69;96909.19;5051997;28;20417;-75
2022/09/13 01:07:37;;;;;;;3.20;1.80;;;16.70;99.90;;;16.01;81.21;96902.78;5052133;28;20488;-75
2022/09/13 01:10:06;;;;;;;3.70;1.90;;;16.80;99.90;;;16.08;81.76;96899.69;5052052;28;20400;-75
2022/09/13 01:12:43;;;;;;;3.80;2.00;;;16.80;99.90;;;16.07;79.83;96909.59;5051824;28;20397;-75
2022/09/13 01:15:10;;;;;;;3.13;1.80;;;16.80;99.90;;;16.04;77.36;96904.03;5051575;28;20402;-76
2022/09/13 01:17:38;;;;;;;3.55;2.10;;;16.80;99.90;;;16.05;79.30;96905.63;5051822;28;20453;-75
2022/09/13 01:20:08;;;;;;;3.80;2.15;;;16.80;99.90;;;16.06;80.18;96901.88;5051593;28;20882;-75
2022/09/13 01:23:22;;;;;;;3.90;2.00;;;16.80;99.90;;;16.07;78.07;96903.44;5051534;28;20400;-75
2022/09/13 01:26:40;;;;;;;4.37;1.70;;;16.80;99.90;;;16.06;79.35;96904.53;5051303;28;21004;-75
2022/09/13 01:30:02;;;;;;;3.85;2.05;;;16.80;99.90;;;16.07;78.85;96904.25;5051667;28;20397;-75
2022/09/13 01:32:40;;;;;;;2.40;1.80;;;16.80;99.90;;;16.08;80.76;96905.03;5051426;28;20425;-75
2022/09/13 01:35:17;;;;;;;3.50;2.10;;;16.80;99.90;;;16.04;78.75;96907.50;5033330;28;20409;-75
2022/09/13 01:37:53;;;;;;;3.75;2.30;;;16.80;99.90;;;16.09;79.15;96903.91;5051413;28;20512;-75
2022/09/13 01:40:38;;;;;;;4.35;2.10;;;16.70;99.90;;;16.11;80.98;96907.88;5051357;28;20811;-74
2022/09/13 01:43:23;;;;;;;2.47;1.83;;;16.80;99.90;;;16.12;79.57;96906.81;5032968;28;20411;-75
2022/09/13 01:46:02;;;;;;;3.77;1.93;;;16.80;99.90;;;16.09;80.58;96906.59;5051206;28;20903;-74
2022/09/13 01:48:44;;;;;;;3.78;2.17;;;16.80;99.90;;;16.15;82.80;96908.09;5051219;28;20492;-74
2022/09/13 01:51:22;;;;;;;4.43;2.07;;;16.80;99.90;;;16.14;83.09;96903.84;5051200;28;20878;-75
2022/09/13 01:54:01;;;;;;;3.47;2.20;;;16.90;99.90;;;16.16;83.66;96910.44;5050712;28;20393;-75
2022/09/13 01:56:34;;;;;;;3.38;2.08;;;16.90;99.90;;;16.14;82.06;96912.66;5050989;28;20421;-74
2022/09/13 01:59:10;;;;;;;4.45;2.00;;;16.90;99.90;;;16.15;78.74;96916.09;5051012;28;20532;-74
2022/09/13 02:01:43;;;;;;;3.60;2.00;;;16.90;99.90;;;16.10;79.17;96908.19;5051089;28;20420;-74
2022/09/13 02:04:14;;;;;;;4.93;2.08;;;16.80;99.90;;;16.05;77.91;96916.31;5050434;28;20400;-74
2022/09/13 02:06:45;;;;;;;5.00;1.90;;;16.80;99.90;;;16.07;79.11;96904.25;5050971;28;20795;-74
2022/09/13 02:09:15;;;;;;;4.95;2.17;;;16.80;99.90;;;16.06;78.11;96910.66;5032985;28;20397;-74
2022/09/13 02:11:45;;;;;;;3.85;2.22;;;16.70;99.90;;;16.03;79.57;96905.91;5050769;28;20917;-75
2022/09/13 02:14:14;;;;;;;2.65;1.90;;;16.70;99.90;;;16.07;80.64;96914.94;5049998;28;20436;-76
2022/09/13 02:16:46;;;;;;;5.68;2.10;;;16.80;99.90;;;16.08;79.54;96915.72;5094150;22;20920;-85
2022/09/13 02:19:18;;;;;;;2.85;2.20;;;16.80;99.90;;;16.07;81.72;96916.81;5080992;28;20425;-84
2022/09/13 02:21:50;;;;;;;4.05;2.15;;;16.80;99.90;;;16.09;79.63;96919.94;5082244;28;20398;-85
2022/09/13 02:24:21;;;;;;;4.43;1.80;;;16.80;99.90;;;16.07;79.08;96916.81;5090322;28;20394;-85
2022/09/13 02:26:52;;;;;;;6.15;1.90;;;16.80;99.90;;;16.07;81.92;96912.25;5070616;28;20399;-84
2022/09/13 02:29:23;;;;;;;5.07;2.30;;;16.80;99.90;;;16.09;80.69;96909.25;5070723;28;20495;-85
2022/09/13 02:31:57;;;;;;;2.97;1.88;;;16.80;99.90;;;16.09;77.72;96917.28;5071117;28;20530;-85
2022/09/13 02:34:30;;;;;;;4.43;2.07;;;16.80;99.90;;;16.09;77.43;96914.59;5070197;28;20416;-83
2022/09/13 02:36:58;;;;;;;3.67;2.30;;;16.70;99.90;;;16.06;75.76;96910.66;5073258;28;20947;-85
2022/09/13 02:39:29;;;;;;;4.32;2.20;;;16.80;99.90;;;16.11;78.23;96915.09;5075028;28;20407;-85
2022/09/13 02:42:03;;;;;;;4.63;2.22;;;16.70;99.90;;;16.06;75.20;96913.34;5074062;28;20399;-86
2022/09/13 02:44:36;;;;;;;5.85;1.92;;;16.80;99.90;;;15.99;74.23;96920.94;5074160;28;20392;-87
2022/09/13 02:47:28;;;;;;;3.03;2.00;;;16.70;99.90;;;15.98;75.10;96918.56;5075879;28;20422;-85
2022/09/13 02:50:06;;;;;;;4.55;2.17;;;16.70;99.90;;;16.01;77.19;96910.78;5071594;28;20407;-86
2022/09/13 02:52:44;;;;;;;3.20;1.95;;;16.70;99.90;;;16.09;76.99;96910.06;5058422;28;20389;-87
2022/09/13 02:55:18;;;;;;;5.55;2.30;;;16.80;99.90;;;16.03;75.42;96908.56;5067942;28;20455;-86
2022/09/13 02:57:57;;;;;;;4.88;2.17;;;16.70;99.90;;;16.06;77.58;96915.22;5064965;28;20839;-85
2022/09/13 03:00:23;;;;;;;4.38;2.30;;;16.70;99.90;;;16.07;75.73;96917.59;5072734;28;20400;-88
2022/09/13 03:02:53;;;;;;;4.63;2.35;;;16.80;99.90;;;16.04;75.41;96920.84;5071178;28;20403;-86
2022/09/13 03:05:19;;;;;;;4.45;2.50;;;16.70;99.90;;;16.11;78.20;96917.78;5070863;28;20403;-85
2022/09/13 03:07:46;;;;;;;3.50;2.10;;;16.70;99.90;;;16.00;74.51;96916.41;5070579;28;20392;-87
2022/09/13 03:10:15;;;;;;;2.90;2.17;;;16.70;99.90;;;16.06;77.89;96909.88;5072024;28;20396;-85
2022/09/13 03:13:02;;;;;;;4.43;2.43;;;16.70;99.90;;;16.05;77.65;96893.06;5062673;28;20391;-85
2022/09/13 03:15:44;;;;;;;3.58;2.00;;;16.70;99.90;;;16.12;77.25;96898.78;5070118;28;20469;-85
2022/09/13 03:18:29;;;;;;;3.13;2.20;;;16.80;99.90;;;16.05;74.98;96886.94;5071163;28;20451;-86
2022/09/13 03:21:06;;;;;;;4.13;2.03;;;16.70;99.90;;;16.01;77.69;96881.41;5068768;28;20966;-84
2022/09/13 03:23:43;;;;;;;2.80;2.13;;;16.70;99.90;;;16.03;80.29;96884.56;5069592;28;20413;-84
2022/09/13 03:26:43;;;;;;;4.75;2.00;;;16.70;99.90;;;16.06;81.02;96889.31;5070303;28;20400;-84
2022/09/13 03:29:30;;;;;;;4.27;2.20;;;16.70;99.90;;;15.99;80.61;96878.25;5069884;28;20428;-85
2022/09/13 03:32:10;;;;;;;2.43;2.10;;;16.80;99.90;;;15.96;81.88;96880.69;5069958;28;20402;-83
2022/09/13 03:34:47;;;;;;;4.30;2.47;;;16.70;99.90;;;15.91;83.11;96886.94;5069419;28;20422;-84
2022/09/13 03:37:24;;;;;;;2.78;2.15;;;16.70;99.90;;;15.87;83.68;96892.06;5069875;28;21004;-84
2022/09/13 03:39:56;;;;;;;4.63;2.00;;;16.60;99.90;;;15.91;81.73;96891.50;5069832;28;20434;-84
2022/09/13 03:42:30;;;;;;;5.97;1.85;;;16.60;99.90;;;16.03;78.72;96903.25;5069934;28;20396;-84
2022/09/13 03:44:58;;;;;;;3.80;1.95;;;16.70;99.90;;;16.00;78.87;96895.84;5069562;28;20461;-83
2022/09/13 03:47:27;;;;;;;5.95;2.10;;;16.70;99.90;;;15.95;75.65;96879.91;5071214;28;20399;-86
2022/09/13 03:49:55;;;;;;;2.33;2.05;;;16.60;99.90;;;15.92;78.92;96880.53;5073436;28;20951;-85
2022/09/13 03:52:23;;;;;;;4.00;2.10;;;16.60;99.90;;;15.91;79.00;96881.59;5073236;28;20400;-84
2022/09/13 03:54:49;;;;;;;4.80;2.30;;;16.60;99.90;;;15.86;80.65;96887.81;5072922;28;20392;-85
2022/09/13 03:57:17;;;;;;;3.15;2.20;;;16.60;99.90;;;15.82;82.84;96886.03;5073288;28;20426;-85
2022/09/13 03:59:46;;;;;;;2.63;1.80;;;16.60;99.90;;;15.77;84.85;96878.16;5071060;28;20486;-85
2022/09/13 04:02:13;;;;;;;2.72;1.98;;;16.60;99.90;;;15.70;84.86;96880.41;5057857;28;20758;-85
2022/09/13 04:04:40;;;;;;;2.90;2.30;;;16.50;99.90;;;15.62;86.43;96879.22;5059683;28;20753;-83
2022/09/13 04:07:10;;;;;;;2.50;2.03;;;16.40;99.90;;;15.56;88.05;96880.41;5066502;28;20484;-85
2022/09/13 04:09:37;;;;;;;2.30;2.10;;;16.40;99.90;;;15.49;88.93;96871.94;5069600;28;20399;-84
2022/09/13 04:12:03;;;;;;;4.00;2.25;;;16.30;99.90;;;15.42;87.96;96871.53;5067290;28;20722;-84
2022/09/13 04:14:29;;;;;;;7.35;2.72;;;16.20;99.90;;;15.35;86.38;96877.25;5056632;28;20403;-84
2022/09/13 04:16:56;;;;;;;3.33;2.20;;;16.20;99.90;;;15.29;86.15;96880.31;5072997;28;20431;-84
2022/09/13 04:19:24;;;;;;;2.63;2.30;;;16.10;99.90;;;15.21;88.92;96871.13;5072913;28;20764;-84
2022/09/13 04:21:51;;;;;;;3.55;2.60;;;16.00;99.90;;;15.17;90.84;96874.66;5072982;28;20404;-84
2022/09/13 04:24:19;;;;;;;4.03;2.60;;;16.00;99.90;;;15.15;90.14;96879.50;5071896;28;20490;-85
2022/09/13 04:26:50;;;;;;;2.40;2.15;;;16.00;99.90;;;15.10;88.94;96881.19;5072211;28;20391;-82
2022/09/13 04:29:17;;;;;;;3.22;2.20;;;15.90;99.90;;;15.06;88.95;96880.16;5072404;28;20400;-82
2022/09/13 04:31:43;;;;;;;4.28;2.60;;;15.90;99.90;;;15.03;90.21;96877.31;5072868;28;20399;-83
2022/09/13 04:34:09;;;;;;;5.15;2.42;;;15.80;99.90;;;15.03;89.65;96886.09;5072070;28;20494;-82
2022/09/13 04:36:34;;;;;;;3.10;2.50;;;15.80;99.90;;;15.02;91.93;96891.72;5072295;28;20507;-82
2022/09/13 04:39:01;;;;;;;6.40;2.47;;;15.80;99.90;;;15.02;89.84;96905.81;5072449;28;20935;-82
2022/09/13 04:41:28;;;;;;;3.40;2.47;;;15.80;99.90;;;14.99;90.53;96919.72;5072385;28;20430;-83
2022/09/13 04:43:54;;;;;;;3.83;2.60;;;15.80;99.90;;;15.00;91.25;96907.97;5072023;28;20734;-83
2022/09/13 04:46:20;;;;;;;3.42;2.30;;;15.80;99.90;;;14.99;92.16;96902.94;5070066;28;20527;-82
2022/09/13 04:48:48;;;;;;;4.32;2.60;;;15.80;99.90;;;15.00;92.18;96897.31;5057664;28;20410;-83
2022/09/13 04:51:14;;;;;;;4.13;2.53;;;15.80;99.90;;;15.01;92.94;96890.91;5070035;28;20490;-83
2022/09/13 04:53:40;;;;;;;4.38;2.30;;;15.90;99.90;;;15.04;92.92;96889.53;5067453;28;20477;-83
2022/09/13 04:56:08;;;;;;;2.90;2.33;;;15.80;99.90;;;15.05;93.55;96899.09;5063516;28;20435;-81
2022/09/13 04:58:35;;;;;;;3.83;2.40;;;15.90;99.90;;;15.06;94.13;96904.16;5071468;28;20408;-84
2022/09/13 05:01:01;;;;;;;4.00;2.80;;;15.90;99.90;;;15.07;94.70;96910.28;5071688;28;20907;-79
2022/09/13 05:03:30;;;;;;;2.80;2.38;;;15.90;99.90;;;15.06;94.39;96917.47;5069651;28;20411;-82
2022/09/13 05:06:02;;;;;;;2.67;2.33;;;15.90;99.90;;;15.07;94.37;96924.41;5060197;28;20919;-80
2022/09/13 05:08:28;;;;;;;3.65;2.30;;;15.90;99.90;;;15.09;94.84;96927.56;5060152;28;20406;-85
2022/09/13 05:10:54;;;;;;;4.53;2.53;;;15.90;99.90;;;15.07;93.48;96924.41;5069951;28;20769;-86
2022/09/13 05:13:20;;;;;;;3.42;2.50;;;15.90;99.90;;;15.05;94.58;96923.09;5061160;28;20405;-82
2022/09/13 05:15:47;;;;;;;3.25;2.17;;;15.90;99.90;;;15.03;95.65;96931.41;5061566;28;20411;-83
2022/09/13 05:18:13;;;;;;;5.95;2.80;;;15.90;99.90;;;15.03;86.86;96919.94;5070074;28;20484;-83
2022/09/13 05:20:39;;;;;;;3.85;2.47;;;15.80;99.90;;;15.01;90.52;96925.56;5070047;28;20963;-82
2022/09/13 05:23:05;;;;;;;7.03;2.43;;;15.80;99.90;;;14.97;89.25;96929.88;5070084;28;20487;-82
2022/09/13 05:25:31;;;;;;;6.07;2.50;;;15.80;99.90;;;14.93;86.97;96931.56;5071481;28;20399;-83
2022/09/13 05:27:57;;;;;;;6.10;2.42;;;15.70;99.90;;;14.89;89.67;96937.72;5071537;28;20461;-83
2022/09/13 05:30:22;;;;;;;4.43;2.70;;;15.70;99.90;;;14.88;89.47;96936.16;5071477;28;20859;-84
2022/09/13 05:32:50;;;;;;;3.47;2.45;;;15.70;99.90;;;14.87;90.88;96945.25;5070955;28;20435;-83
2022/09/13 05:35:16;;;;;;;3.87;2.80;;;15.70;99.90;;;14.86;89.35;96946.31;5071197;28;20457;-83
2022/09/13 05:37:41;;;;;;;3.50;2.50;;;15.70;99.90;;;14.84;90.75;96957.25;5071225;28;20419;-83
2022/09/13 05:40:08;;;;;;;3.22;2.50;;;15.60;99.90;;;14.82;92.92;96959.41;5071393;28;20403;-83
2022/09/13 05:42:34;;;;;;;3.03;2.47;;;15.60;99.90;;;14.83;93.41;96947.69;5071264;28;20545;-83
2022/09/13 05:45:00;;;;;;;4.85;2.50;;;15.60;99.90;;;14.85;94.54;96958.06;5061658;28;20510;-83
2022/09/13 05:47:26;;;;;;;5.25;2.47;;;15.70;99.90;;;14.87;95.31;96953.25;5061302;28;20411;-84
2022/09/13 05:49:53;;;;;;;4.82;2.60;;;15.70;99.90;;;14.86;95.81;96947.13;5071141;28;20494;-84
2022/09/13 05:52:19;;;;;;;3.17;2.67;;;15.70;99.90;;;14.91;96.37;96954.22;5071043;28;20411;-84
2022/09/13 05:54:45;;;;;;;4.95;2.67;;;15.70;99.90;;;14.90;95.47;96948.09;5070542;28;20492;-84
2022/09/13 05:57:11;;;;;;;3.72;2.40;;;15.70;99.90;;;14.91;95.43;96952.34;5071002;28;20790;-84
2022/09/13 05:59:37;;;;;;;3.22;2.40;;;15.70;99.90;;;14.92;96.04;96943.28;5071053;28;20396;-84
2022/09/13 06:02:03;;;;;;;3.63;2.33;;;15.70;99.90;;;14.96;89.94;96935.53;5070883;28;20885;-84
2022/09/13 06:04:29;;;;;;;4.85;2.45;;;15.70;99.90;;;14.98;94.59;96933.34;5060993;28;20420;-76
2022/09/13 06:06:56;;;;;;;3.60;2.40;;;15.80;99.90;;;15.03;95.75;96941.28;5062436;28;20392;-76
2022/09/13 06:09:22;;;;;;;3.15;2.60;;;15.80;99.90;;;15.07;95.92;96943.06;5069604;28;20450;-76
2022/09/13 06:11:48;;;;;;;3.60;2.40;;;15.90;99.90;;;15.12;96.74;96950.16;5056823;28;20490;-77
2022/09/13 06:14:13;;;;;;;4.15;2.30;;;15.90;99.90;;;15.17;96.90;96957.31;5070029;28;20395;-77
2022/09/13 06:16:39;;;;;;;5.23;2.47;;;15.90;99.90;;;15.19;97.47;96957.78;5070086;28;20415;-77
2022/09/13 06:19:05;;;;;;;3.73;2.47;;;16.00;99.90;;;15.21;97.51;96961.78;5070650;28;20404;-76
2022/09/13 06:21:31;;;;;;;4.53;2.38;;;16.00;99.90;;;15.22;97.76;96959.91;5070689;28;20396;-76
2022/09/13 06:23:58;;;;;;;3.30;2.70;;;16.00;99.90;;;15.23;97.48;96964.94;5070101;28;20402;-76
2022/09/13 06:26:27;;;;;;;4.40;2.55;;;16.00;99.90;;;15.25;97.92;96962.78;5070461;28;20409;-77
2022/09/13 06:28:56;;;;;;;4.80;2.67;;;16.00;99.90;;;15.24;97.54;96966.53;5070554;28;20434;-77
2022/09/13 06:31:24;;;;;;;5.75;3.05;;;16.00;99.90;;;15.23;95.94;96966.81;5068917;28;20844;-77
2022/09/13 06:33:56;;;;;;;4.55;2.67;;;16.00;99.90;;;15.23;91.94;96956.16;5062262;28;20403;-77
2022/09/13 06:36:22;;;;;;;3.78;2.50;;;16.00;99.90;;;15.22;96.06;96954.56;5070360;28;20399;-77
2022/09/13 06:38:48;;;;;;;4.78;2.75;;;16.00;99.90;;;15.24;96.55;96955.06;5070387;28;20395;-77
2022/09/13 06:41:18;;;;;;;2.92;2.42;;;16.00;99.90;;;15.26;96.33;96955.59;5070524;28;20399;-77
2022/09/13 06:43:45;;;;;;;6.15;2.70;;;16.00;99.90;;;15.26;89.31;96955.59;5069873;28;20952;-77
2022/09/13 06:46:15;;;;;;;5.03;2.65;;;16.00;99.90;;;15.31;93.97;96955.50;5070286;28;20482;-77
2022/09/13 06:48:43;;;;;;;4.93;2.42;;;16.00;99.90;;;15.34;95.13;96946.88;5070329;28;20400;-77
2022/09/13 06:51:12;;;;;;;4.05;2.50;;;16.10;99.90;;;15.40;95.74;96949.22;5070143;28;20408;-77
2022/09/13 06:53:38;;;;;;;3.05;2.50;;;16.10;99.90;;;15.44;96.00;96952.06;5063115;28;20404;-77
2022/09/13 06:56:07;;;;;;;4.10;2.55;;;16.20;99.90;;;15.48;95.95;96961.09;5061792;28;20404;-77
2022/09/13 06:58:36;;;;;;;3.55;2.60;;;16.20;99.90;;;15.53;96.29;96949.53;5061628;28;20417;-77
2022/09/13 07:01:11;;;;;;;3.60;2.47;;;16.30;99.90;;;15.60;96.86;96939.28;5061637;28;20449;-77
2022/09/13 07:03:39;;;;;;;7.50;2.35;;;16.30;99.90;;;15.65;97.27;96937.31;5061142;28;20482;-77
2022/09/13 07:06:10;;;;;;;5.15;2.70;;;16.40;99.90;;;15.73;97.13;96941.97;5061715;28;20757;-77
2022/09/13 07:08:37;;;;;;;4.90;2.63;;;16.40;99.90;;;15.80;97.41;96936.25;5070122;28;20403;-77
2022/09/13 07:11:03;;;;;;;3.38;2.70;;;16.50;99.90;;;15.88;97.16;96941.69;5070091;28;20483;-77
2022/09/13 07:13:29;;;;;;;2.78;2.42;;;16.60;99.90;;;15.98;97.46;96938.06;5069635;28;20490;-77
2022/09/13 07:15:56;;;;;;;5.60;2.45;;;16.70;99.90;;;16.09;97.67;96934.09;5069961;28;20439;-77
2022/09/13 07:18:22;;;;;;;2.95;2.20;;;16.80;99.90;;;16.17;96.30;96938.72;5069951;28;20415;-77
2022/09/13 07:20:48;;;;;;;5.75;2.70;;;16.80;99.90;;;16.26;96.35;96944.97;5069967;28;20414;-77
2022/09/13 07:23:14;;;;;;;4.78;2.35;;;17.00;99.90;;;16.35;95.54;96944.28;5072358;28;20408;-77
2022/09/13 07:25:40;;;;;;;4.10;2.20;;;17.00;99.90;;;16.43;94.87;96938.22;5073876;28;20466;-77
2022/09/13 07:28:06;;;;;;;3.37;2.30;;;17.10;99.90;;;16.49;94.68;96931.69;5073921;28;20947;-77
2022/09/13 07:30:32;;;;;;;4.20;2.43;;;17.20;99.90;;;16.52;90.26;96923.88;5073895;28;20427;-76
2022/09/13 07:33:00;;;;;;;4.55;2.20;;;17.20;99.90;;;16.58;89.59;96914.66;5073390;28;20399;-76
2022/09/13 07:35:26;;;;;;;5.03;2.47;;;17.30;99.90;;;16.68;90.56;96908.31;5073754;28;20404;-75
2022/09/13 07:37:51;;;;;;;2.97;2.10;;;17.30;99.90;;;16.76;91.11;96920.97;5073711;28;20819;-78
2022/09/13 07:40:17;;;;;;;3.72;2.00;;;17.40;99.90;;;16.85;91.60;96923.69;5073651;28;20399;-77
2022/09/13 07:42:43;;;;;;;8.52;2.08;;;17.50;99.90;;;16.91;91.70;96931.31;5073197;28;20399;-77
2022/09/13 07:45:11;;;;;;;3.42;2.20;;;17.60;99.90;;;16.98;91.87;96929.03;5073317;28;20478;-77
2022/09/13 07:47:37;;;;;;;4.95;2.03;;;17.60;99.90;;;16.99;90.49;96932.47;5073518;28;20907;-78
2022/09/13 07:50:05;;;;;;;6.68;2.67;;;17.60;99.90;;;17.07;87.67;96925.59;5073479;28;20396;-77
2022/09/13 07:52:35;;;;;;;4.30;2.30;;;17.70;99.90;;;17.22;86.28;96927.91;5073312;28;20410;-77
2022/09/13 07:55:01;;;;;;;3.08;2.10;;;17.80;99.90;;;17.45;86.99;96939.38;5072791;28;20507;-77
2022/09/13 07:57:26;;;;;;;2.42;2.00;;;18.00;99.90;;;17.65;88.12;96941.59;5073197;28;20534;-77
2022/09/13 07:59:52;;;;;;;4.95;2.40;;;18.20;99.90;;;17.88;88.52;96942.34;5073334;28;20434;-76
2022/09/13 08:02:18;;;;;;;3.42;2.10;;;18.40;99.90;;;18.07;88.34;96934.84;5073096;28;20897;-76
2022/09/13 08:04:44;;;;;;;3.95;1.80;;;18.60;99.90;;;18.29;88.17;96929.41;5072582;28;20899;-76
2022/09/13 08:07:13;;;;;;;4.40;2.13;;;18.80;99.90;;;18.48;87.81;96927.25;5072993;28;20400;-77
2022/09/13 08:09:39;;;;;;;2.58;1.98;;;19.00;99.90;;;18.67;87.46;96926.97;5073053;28;20769;-77
2022/09/13 08:12:05;;;;;;;3.38;1.85;;;19.20;99.90;;;18.79;86.40;96912.97;5073061;28;20490;-78
2022/09/13 08:14:31;;;;;;;4.90;1.80;;;19.30;99.90;;;18.89;86.12;96912.63;5072419;28;20404;-79
2022/09/13 08:16:57;;;;;;;2.55;1.83;;;19.40;99.90;;;19.00;85.75;96910.44;5102549;22;20490;-73
2022/09/13 08:19:23;;;;;;;3.50;2.00;;;19.50;99.90;;;19.06;85.23;96917.22;5091295;28;20489;-73
2022/09/13 08:21:49;;;;;;;2.45;1.73;;;19.60;99.90;;;19.09;84.50;96922.75;5092727;28;20409;-73
2022/09/13 08:24:20;;;;;;;2.85;2.05;;;19.60;99.90;;;19.13;84.65;96920.22;5092639;28;20791;-75
2022/09/13 08:26:46;;;;;;;2.92;2.05;;;19.60;99.90;;;19.14;84.31;96913.75;5093012;28;20389;-74
2022/09/13 08:29:14;;;;;;;3.30;1.80;;;19.70;99.90;;;19.17;84.42;96919.25;5084766;28;20471;-74
2022/09/13 08:31:40;;;;;;;4.18;1.88;;;19.70;99.90;;;19.21;84.22;96916.72;5081347;28;20841;-74
2022/09/13 08:34:10;;;;;;;2.70;2.10;;;19.70;99.90;;;19.24;83.80;96914.22;5083651;28;20441;-75
2022/09/13 08:36:36;;;;;;;2.83;1.73;;;19.80;99.90;;;19.31;84.39;96913.72;5083208;28;20406;-74
2022/09/13 08:39:02;;;;;;;4.35;1.80;;;19.80;99.90;;;19.36;83.84;96918.91;5087870;28;21480;-75
2022/09/13 08:42:17;;;;;;;4.70;1.75;;;19.90;99.90;;;19.47;84.09;96925.53;5091269;28;20429;-75
2022/09/13 08:44:47;;;;;;;2.77;1.60;;;20.00;99.90;;;19.59;83.97;96923.00;5071893;28;20417;-74
2022/09/13 08:47:34;;;;;;;8.55;2.13;;;20.10;99.90;;;19.57;74.12;96908.31;5072486;28;20388;-75
2022/09/13 08:50:11;;;;;;;8.05;2.15;;;20.10;99.90;;;19.67;72.08;96908.78;5073020;28;20420;-74
2022/09/13 08:52:56;;;;;;;6.70;2.00;;;20.20;99.90;;;19.70;65.16;96910.78;5092076;28;20475;-75
2022/09/13 08:55:35;;;;;;;6.25;2.03;;;20.30;94.70;;;19.74;66.86;96907.47;5083438;28;20398;-75
2022/09/13 08:58:16;;;;;;;9.27;2.03;;;20.30;96.10;;;19.82;67.17;96910.13;5085159;28;20410;-74
2022/09/13 09:00:48;;;;;;;2.35;1.60;;;20.40;97.00;;;19.91;70.79;96910.91;5087448;28;20799;-74
2022/09/13 09:03:27;;;;;;;6.20;1.85;;;20.50;99.90;;;19.85;69.02;96906.78;5078724;28;20518;-74
2022/09/13 09:05:53;;;;;;;5.32;1.70;;;20.40;99.20;;;19.94;72.22;96898.69;5071191;28;20954;-74
2022/09/13 09:08:30;;;;;;;2.88;1.58;;;20.50;99.90;;;20.06;74.53;96890.75;5071387;28;20395;-74
2022/09/13 09:11:01;;;;;;;3.23;1.67;;;20.60;99.90;;;20.15;71.40;96886.09;5071447;28;20847;-75
2022/09/13 09:13:31;;;;;;;4.40;1.90;;;20.70;99.70;;;20.34;69.32;96891.09;5071580;28;20395;-75
2022/09/13 09:16:01;;;;;;;3.03;1.70;;;20.90;99.90;;;20.50;71.75;96894.78;5071837;28;20490;-74
2022/09/13 09:18:33;;;;;;;5.35;1.60;;;21.00;99.90;;;20.54;67.99;96897.59;5071859;28;20412;-74
2022/09/13 09:21:02;;;;;;;4.75;1.77;;;21.10;97.40;;;20.58;68.36;96898.53;5071898;28;20400;-74
2022/09/13 09:23:36;;;;;;;3.90;1.47;;;21.10;98.10;;;20.66;71.72;96898.50;5070080;28;20408;-74
2022/09/13 09:26:15;;;;;;;3.20;1.60;;;21.10;99.90;;;20.77;72.62;96907.72;5071798;28;20487;-75
2022/09/13 09:28:45;;;;;;;4.68;1.50;;;21.20;99.90;;;20.94;73.52;96908.72;5071741;28;20388;-75
2022/09/13 09:31:19;;;;;;;4.40;1.50;;;21.30;99.90;;;21.13;73.69;96893.66;5071659;28;20396;-75
2022/09/13 09:33:58;;;;;;;3.95;1.65;;;21.60;99.90;;;21.35;73.69;96897.91;5071052;28;20400;-75
2022/09/13 09:36:36;;;;;;;4.78;1.58;;;21.70;99.90;;;21.52;72.95;96907.72;5071546;28;20392;-75
2022/09/13 09:39:04;;;;;;;3.00;1.93;;;21.90;99.90;;;21.61;69.29;96903.81;5071489;28;20418;-75
2022/09/13 09:41:33;;;;;;;3.13;1.58;;;22.00;99.90;;;21.78;71.35;96899.34;5071497;28;20753;-75
2022/09/13 09:44:12;;;;;;;2.13;1.52;;;22.10;99.90;;;21.92;71.65;96900.59;5071033;28;20410;-75
2022/09/13 09:46:41;;;;;;;4.03;2.25;;;22.30;99.90;;;22.10;71.62;96905.81;5071145;28;20434;-75
2022/09/13 09:52:05;;;;;;;6.23;2.07;;;22.50;99.90;;;22.19;68.66;96909.94;5071146;28;20946;-74
2022/09/13 09:54:34;;;;;;;6.50;2.00;;;22.60;98.80;;;22.28;68.52;96912.53;5070725;28;20869;-74
2022/09/13 09:57:00;;;;;;;4.07;1.83;;;22.70;98.60;;;22.37;69.42;96916.69;5069638;28;20398;-74
2022/09/13 09:59:31;;;;;;;2.78;1.88;;;22.70;99.30;;;22.49;70.61;96917.78;5070950;28;20407;-76
2022/09/13 10:01:58;;;;;;;4.53;1.70;;;22.90;99.90;;;22.56;69.53;96913.41;5071103;28;20432;-74
2022/09/13 10:04:25;;;;;;;5.20;1.55;;;22.90;99.20;;;22.62;70.39;96914.75;5070517;28;20516;-74
2022/09/13 10:07:14;;;;;;;2.85;1.70;;;23.00;99.90;;;22.63;70.64;96924.41;5070734;28;20739;-75
2022/09/13 10:09:57;;;;;;;3.38;1.55;;;23.10;99.90;;;22.60;69.92;96925.09;5070909;28;20395;-74
2022/09/13 10:12:27;;;;;;;3.70;2.40;;;23.00;99.80;;;22.66;70.96;96928.34;5078728;28;20409;-75
2022/09/13 10:15:11;;;;;;;6.47;2.53;;;23.00;99.90;;;22.67;69.09;96922.63;5087587;28;20906;-75
2022/09/13 10:17:36;;;;;;;5.05;2.13;;;23.10;99.50;;;22.71;66.93;96922.72;5068933;28;20902;-75
2022/09/13 10:20:20;;;;;;;5.68;1.65;;;23.10;96.80;;;22.86;68.74;96913.16;5089957;28;20420;-74
2022/09/13 10:23:20;;;;;;;3.03;1.70;;;23.20;98.40;;;22.90;66.68;96914.03;5077339;28;20404;-75
2022/09/13 10:26:07;;;;;;;4.07;1.88;;;23.30;98.00;;;22.90;64.52;96905.94;5082262;28;20450;-75
2022/09/13 10:28:42;;;;;;;4.47;1.83;;;23.30;94.50;;;22.99;65.88;96909.31;5090336;28;20413;-75
2022/09/13 10:31:12;;;;;;;5.05;1.67;;;23.40;95.80;;;23.11;64.31;96904.63;5090593;28;20798;-74
2022/09/13 10:33:59;;;;;;;7.05;2.55;;;23.50;94.40;;;23.23;59.56;96895.69;5090045;28;20398;-76
2022/09/13 10:36:30;;;;;;;4.28;2.20;;;23.60;88.60;;;23.32;59.49;96899.03;5072946;28;20479;-74
2022/09/13 10:39:00;;;;;;;4.55;1.67;;;23.70;88.00;;;23.52;63.56;96897.28;5070453;28;20420;-75